createdAt,value
2019-04-01T00:00:43.678Z,354.83
2019-04-01T00:03:11.498Z,378.13
2019-04-01T00:05:40.094Z,357.93
2019-04-01T00:08:08.200Z,383.73
2019-04-01T00:10:35.723Z,375.40
2019-04-01T00:13:03.467Z,403.67
2019-04-01T00:15:31.111Z,355.30
2019-04-01T00:18:00.847Z,365.97
2019-04-01T00:20:28.393Z,385.10
2019-04-01T00:22:56.046Z,363.30
2019-04-01T00:25:23.577Z,353.43
2019-04-01T00:27:51.009Z,380.27
2019-04-01T00:30:18.933Z,368.30
2019-04-01T00:32:47.266Z,353.53
2019-04-01T00:35:14.721Z,380.27
2019-04-01T00:37:42.629Z,364.40
2019-04-01T00:40:10.809Z,335.93
2019-04-01T00:42:43.577Z,357.87
2019-04-01T00:45:15.272Z,382.67
2019-04-01T00:47:43.615Z,369.90
2019-04-01T00:50:11.313Z,392.60
2019-04-01T00:52:39.288Z,377.53
2019-04-01T00:55:07.145Z,382.93
2019-04-01T00:57:34.848Z,385.27
2019-04-01T01:00:03.941Z,372.17
2019-04-01T01:02:33.105Z,373.63
2019-04-01T01:05:00.740Z,429.70
2019-04-01T01:07:28.332Z,366.37
2019-04-01T01:09:56.064Z,392.23
2019-04-01T01:12:23.827Z,369.37
2019-04-01T01:14:51.490Z,406.30
2019-04-01T01:17:19.321Z,353.60
2019-04-01T01:19:46.961Z,372.00
2019-04-01T01:22:14.386Z,373.00
2019-04-01T01:24:41.850Z,378.37
2019-04-01T01:27:09.583Z,393.37
2019-04-01T01:29:38.332Z,370.07
2019-04-01T01:32:05.794Z,358.43
2019-04-01T01:34:33.462Z,408.10
2019-04-01T01:37:01.116Z,369.17
2019-04-01T01:39:28.704Z,379.53
2019-04-01T01:41:56.198Z,348.33
2019-04-01T01:44:23.833Z,380.47
2019-04-01T01:46:54.308Z,336.60
2019-04-01T01:49:22.155Z,392.00
2019-04-01T01:51:49.852Z,376.07
2019-04-01T01:54:17.542Z,391.97
2019-04-01T01:56:45.177Z,344.20
2019-04-01T01:59:12.762Z,453.03
2019-04-01T02:01:40.395Z,354.57
2019-04-01T02:04:09.449Z,178.00
2019-04-01T02:06:37.422Z,249.37
2019-04-01T02:09:05.703Z,259.60
2019-04-01T02:11:34.293Z,241.57
2019-04-01T02:14:02.855Z,276.77
2019-04-01T02:16:31.159Z,257.30
2019-04-01T02:18:59.421Z,266.47
2019-04-01T02:21:26.761Z,251.33
2019-04-01T02:23:54.213Z,250.80
2019-04-01T02:26:22.048Z,255.40
2019-04-01T02:28:49.811Z,258.33
2019-04-01T02:31:17.277Z,257.30
2019-04-01T02:33:46.101Z,279.97
2019-04-01T02:36:14.157Z,257.30
2019-04-01T02:38:43.140Z,243.37
2019-04-01T02:41:10.750Z,250.53
2019-04-01T02:43:38.194Z,236.23
2019-04-01T02:46:05.707Z,262.13
2019-04-01T02:48:33.767Z,261.73
2019-04-01T02:51:01.869Z,259.73
2019-04-01T02:53:29.328Z,257.17
2019-04-01T02:55:56.856Z,252.23
2019-04-01T02:58:25.339Z,245.60
2019-04-01T03:00:53.230Z,248.13
2019-04-01T03:03:22.368Z,259.53
2019-04-01T03:05:50.367Z,248.63
2019-04-01T03:08:18.095Z,254.97
2019-04-01T03:10:45.817Z,237.13
2019-04-01T03:13:15.783Z,262.57
2019-04-01T03:15:43.269Z,257.00
2019-04-01T03:18:17.879Z,244.73
2019-04-01T03:20:46.566Z,244.33
2019-04-01T03:23:14.434Z,260.47
2019-04-01T03:25:41.985Z,237.60
2019-04-01T03:28:09.663Z,240.97
2019-04-01T03:30:37.116Z,234.00
2019-04-01T03:33:04.700Z,228.70
2019-04-01T03:35:32.279Z,233.07
2019-04-01T03:37:59.976Z,231.63
2019-04-01T03:40:27.494Z,237.73
2019-04-01T03:42:54.850Z,231.43
2019-04-01T03:45:25.071Z,237.63
2019-04-01T03:47:54.406Z,263.63
2019-04-01T03:50:22.157Z,253.60
2019-04-01T03:52:49.786Z,228.57
2019-04-01T03:55:17.465Z,228.47
2019-04-01T03:57:46.640Z,236.10
2019-04-01T04:00:14.286Z,265.50
2019-04-01T04:02:42.974Z,231.23
2019-04-01T04:05:11.047Z,247.87
2019-04-01T04:07:42.690Z,237.23
2019-04-01T04:10:10.487Z,242.30
2019-04-01T04:12:38.176Z,242.47
2019-04-01T04:15:08.319Z,251.23
2019-04-01T04:17:36.100Z,243.40
2019-04-01T04:20:04.256Z,254.20
2019-04-01T04:22:31.902Z,235.90
2019-04-01T04:24:59.324Z,250.37
2019-04-01T04:27:27.628Z,238.93
2019-04-01T04:29:55.495Z,264.70
2019-04-01T04:33:36.416Z,234.73
2019-04-01T04:36:04.150Z,233.93
2019-04-01T04:38:32.207Z,231.30
2019-04-01T04:40:59.631Z,239.93
2019-04-01T04:43:27.111Z,243.80
2019-04-01T04:45:55.162Z,239.23
2019-04-01T04:48:23.162Z,243.90
2019-04-01T04:50:50.655Z,235.00
2019-04-01T04:53:18.634Z,268.00
2019-04-01T04:55:46.468Z,227.37
2019-04-01T04:58:14.602Z,230.10
2019-04-01T05:00:42.594Z,249.53
2019-04-01T05:03:10.730Z,238.90
2019-04-01T05:05:38.262Z,245.40
2019-04-01T05:08:06.220Z,243.97
2019-04-01T05:10:33.924Z,240.73
2019-04-01T05:13:01.664Z,242.43
2019-04-01T05:15:29.182Z,243.50
2019-04-01T05:17:57.971Z,235.20
2019-04-01T05:20:25.397Z,242.17
2019-04-01T05:22:54.297Z,235.60
2019-04-01T05:25:22.359Z,254.80
2019-04-01T05:27:53.122Z,249.63
2019-04-01T05:30:21.302Z,240.57
2019-04-01T05:32:51.287Z,247.83
2019-04-01T05:35:19.205Z,237.30
2019-04-01T05:37:47.418Z,232.93
2019-04-01T05:40:15.496Z,245.17
2019-04-01T05:42:43.564Z,241.90
2019-04-01T05:45:11.280Z,235.23
2019-04-01T05:47:43.348Z,230.77
2019-04-01T05:50:11.459Z,246.00
2019-04-01T05:52:40.494Z,252.50
2019-04-01T05:55:09.119Z,244.30
2019-04-01T05:57:38.576Z,254.97
2019-04-01T06:00:08.065Z,238.67
2019-04-01T06:02:36.716Z,260.07
2019-04-01T06:05:25.826Z,286.10
2019-04-01T06:07:54.423Z,307.43
2019-04-01T06:10:22.141Z,237.40
2019-04-01T06:12:50.333Z,256.53
2019-04-01T06:15:18.225Z,251.83
2019-04-01T06:17:47.839Z,255.70
2019-04-01T06:20:17.673Z,267.40
2019-04-01T06:22:45.525Z,260.50
2019-04-01T06:25:13.428Z,259.00
2019-04-01T06:27:45.103Z,253.47
2019-04-01T06:30:13.271Z,268.77
2019-04-01T06:32:42.808Z,267.33
2019-04-01T06:35:10.875Z,255.23
2019-04-01T06:37:39.596Z,232.13
2019-04-01T06:40:13.095Z,226.37
2019-04-01T06:42:41.105Z,218.30
2019-04-01T06:45:09.245Z,247.77
2019-04-01T06:47:37.913Z,224.33
2019-04-01T06:50:06.969Z,241.33
2019-04-01T06:52:35.061Z,233.63
2019-04-01T06:55:03.447Z,225.83
2019-04-01T06:57:32.764Z,229.50
2019-04-01T07:00:00.581Z,245.90
2019-04-01T07:02:28.019Z,310.87
2019-04-01T07:04:55.701Z,349.70
2019-04-01T07:07:23.286Z,327.43
2019-04-01T07:09:50.978Z,357.90
2019-04-01T07:12:18.555Z,331.30
2019-04-01T07:14:47.346Z,345.27
2019-04-01T07:17:14.838Z,330.13
2019-04-01T07:19:42.608Z,364.97
2019-04-01T07:22:10.162Z,427.03
2019-04-01T07:24:37.843Z,374.37
2019-04-01T07:27:08.172Z,331.53
2019-04-01T07:29:36.902Z,369.20
2019-04-01T07:32:04.457Z,310.30
2019-04-01T07:34:32.204Z,344.13
2019-04-01T07:36:59.939Z,352.30
2019-04-01T07:39:27.515Z,387.13
2019-04-01T07:41:55.082Z,315.03
2019-04-01T07:44:22.848Z,381.57
2019-04-01T07:46:50.468Z,329.87
2019-04-01T07:49:18.250Z,355.27
2019-04-01T07:51:46.094Z,313.43
2019-04-01T07:54:14.078Z,401.37
2019-04-01T07:56:44.897Z,326.10
2019-04-01T07:59:13.159Z,467.60
2019-04-01T08:01:40.799Z,351.20
2019-04-01T08:04:08.572Z,391.10
2019-04-01T08:06:36.294Z,326.30
2019-04-01T08:09:05.227Z,386.83
2019-04-01T08:11:32.883Z,329.20
2019-04-01T08:14:00.573Z,343.07
2019-04-01T08:16:28.186Z,308.57
2019-04-01T08:18:55.868Z,341.90
2019-04-01T08:21:23.396Z,334.67
2019-04-01T08:23:50.989Z,378.47
2019-04-01T08:26:18.628Z,332.87
2019-04-01T08:28:46.248Z,342.90
2019-04-01T08:31:13.775Z,379.30
2019-04-01T08:33:41.508Z,318.37
2019-04-01T08:36:09.302Z,356.23
2019-04-01T08:38:37.170Z,325.17
2019-04-01T08:41:05.058Z,315.93
2019-04-01T08:43:32.626Z,323.70
2019-04-01T08:46:00.004Z,319.80
2019-04-01T08:48:27.577Z,313.80
2019-04-01T08:50:55.106Z,342.60
2019-04-01T08:53:22.906Z,372.67
2019-04-01T08:55:51.095Z,327.00
2019-04-01T08:58:19.094Z,320.00
2019-04-01T09:00:46.800Z,334.97
2019-04-01T09:03:14.281Z,317.70
2019-04-01T09:05:42.187Z,315.07
2019-04-01T09:08:09.601Z,401.47
2019-04-01T09:10:37.100Z,313.03
2019-04-01T09:13:04.963Z,322.07
2019-04-01T09:15:32.668Z,292.87
2019-04-01T09:18:00.355Z,298.30
2019-04-01T09:20:27.808Z,276.60
2019-04-01T09:22:55.175Z,305.63
2019-04-01T09:25:22.766Z,309.00
2019-04-01T09:27:50.356Z,311.33
2019-04-01T09:30:18.819Z,310.23
2019-04-01T09:32:46.705Z,311.57
2019-04-01T09:35:14.474Z,291.47
2019-04-01T09:37:42.175Z,314.27
2019-04-01T09:40:10.241Z,411.23
2019-04-01T09:42:37.883Z,305.47
2019-04-01T09:45:06.384Z,331.70
2019-04-01T09:47:34.131Z,337.67
2019-04-01T09:50:01.815Z,352.23
2019-04-01T09:52:29.375Z,331.37
2019-04-01T09:54:56.920Z,369.50
2019-04-01T09:57:24.598Z,298.97
2019-04-01T09:59:52.141Z,342.80
2019-04-01T10:02:31.233Z,334.83
2019-04-01T10:04:49.384Z,374.60
2019-04-01T10:07:17.440Z,316.07
2019-04-01T10:09:44.804Z,370.87
2019-04-01T10:12:12.534Z,339.53
2019-04-01T10:14:40.105Z,341.67
2019-04-01T10:17:07.712Z,427.70
2019-04-01T10:19:35.384Z,350.03
2019-04-01T10:22:03.064Z,269.73
2019-04-01T10:24:30.693Z,336.53
2019-04-01T10:28:32.136Z,277.40
2019-04-01T10:30:59.198Z,301.87
2019-04-01T10:33:26.793Z,306.70
2019-04-01T10:35:54.546Z,304.97
2019-04-01T10:38:22.401Z,405.10
2019-04-01T10:40:49.961Z,303.50
2019-04-01T10:43:17.527Z,333.53
2019-04-01T10:45:45.536Z,308.53
2019-04-01T10:48:13.096Z,311.80
2019-04-01T10:50:41.147Z,331.67
2019-04-01T10:53:08.554Z,320.90
2019-04-01T10:55:36.194Z,285.23
2019-04-01T10:58:04.211Z,305.23
2019-04-01T11:00:33.250Z,284.47
2019-04-01T11:03:00.881Z,256.67
2019-04-01T11:05:28.293Z,271.20
2019-04-01T11:07:56.024Z,280.53
2019-04-01T11:10:23.602Z,344.07
2019-04-01T11:12:51.195Z,268.80
2019-04-01T11:15:20.191Z,339.27
2019-04-01T11:17:52.327Z,284.85
2019-04-01T11:20:18.500Z,284.87
2019-04-01T11:22:46.144Z,271.55
2019-04-01T11:25:13.984Z,273.40
2019-04-01T11:27:41.629Z,278.77
2019-04-01T11:30:13.486Z,292.15
2019-04-01T11:32:43.615Z,290.62
2019-04-01T11:35:11.360Z,292.65
2019-04-01T11:37:39.296Z,284.83
2019-04-01T11:40:38.617Z,284.05
2019-04-01T11:43:05.326Z,292.75
2019-04-01T11:45:33.082Z,277.20
2019-04-01T11:48:00.642Z,283.32
2019-04-01T11:50:28.375Z,284.00
2019-04-01T11:52:56.020Z,360.27
2019-04-01T11:55:23.561Z,280.92
2019-04-01T11:57:50.939Z,355.45
2019-04-01T12:00:18.756Z,286.55
2019-04-01T12:02:46.627Z,297.20
2019-04-01T12:05:14.240Z,288.45
2019-04-01T12:07:42.014Z,276.92
2019-04-01T12:10:09.689Z,273.48
2019-04-01T12:12:37.289Z,313.00
2019-04-01T12:15:05.977Z,300.82
2019-04-01T12:17:33.522Z,269.93
2019-04-01T12:20:01.293Z,324.40
2019-04-01T12:22:29.078Z,293.70
2019-04-01T12:24:56.692Z,331.45
2019-04-01T12:27:24.395Z,296.50
2019-04-01T12:29:52.629Z,349.95
2019-04-01T12:32:20.681Z,288.82
2019-04-01T12:34:48.069Z,331.45
2019-04-01T12:37:15.575Z,292.87
2019-04-01T12:39:43.167Z,324.50
2019-04-01T12:42:10.875Z,277.10
2019-04-01T12:44:38.951Z,307.57
2019-04-01T12:47:06.331Z,284.45
2019-04-01T12:49:33.924Z,322.42
2019-04-01T12:52:02.241Z,310.50
2019-04-01T12:54:29.931Z,309.77
2019-04-01T12:56:57.543Z,306.77
2019-04-01T12:59:25.054Z,298.97
2019-04-01T13:01:52.768Z,368.00
2019-04-01T13:04:20.429Z,344.93
2019-04-01T13:06:47.944Z,357.63
2019-04-01T13:09:15.614Z,339.00
2019-04-01T13:11:43.118Z,307.77
2019-04-01T13:14:11.076Z,343.17
2019-04-01T13:16:38.605Z,315.87
2019-04-01T13:19:06.197Z,338.57
2019-04-01T13:21:36.640Z,340.97
2019-04-01T13:24:05.126Z,353.90
2019-04-01T13:26:33.221Z,302.00
2019-04-01T13:29:01.014Z,315.43
2019-04-01T13:31:28.430Z,294.60
2019-04-01T13:33:56.336Z,317.07
2019-04-01T13:36:24.197Z,313.77
2019-04-01T13:38:51.748Z,360.90
2019-04-01T13:41:19.189Z,327.30
2019-04-01T13:43:48.810Z,339.53
2019-04-01T13:46:16.701Z,343.43
2019-04-01T13:48:57.072Z,335.53
2019-04-01T13:51:15.503Z,344.87
2019-04-01T13:53:43.367Z,298.27
2019-04-01T13:56:12.467Z,320.80
2019-04-01T13:58:41.281Z,298.30
2019-04-01T14:01:11.095Z,330.30
2019-04-01T14:03:40.794Z,307.90
2019-04-01T14:06:09.814Z,334.07
2019-04-01T14:08:37.757Z,286.23
2019-04-01T14:11:06.212Z,336.13
2019-04-01T14:13:34.235Z,296.00
2019-04-01T14:16:01.848Z,381.47
2019-04-01T14:18:29.465Z,317.73
2019-04-01T14:20:56.859Z,322.80
2019-04-01T14:23:25.601Z,322.43
2019-04-01T14:25:53.184Z,314.37
2019-04-01T14:28:20.864Z,326.90
2019-04-01T14:30:48.485Z,301.63
2019-04-01T14:33:16.248Z,334.83
2019-04-01T14:35:45.273Z,294.00
2019-04-01T14:38:14.175Z,297.07
2019-04-01T14:40:41.806Z,337.53
2019-04-01T14:43:09.954Z,316.53
2019-04-01T14:45:37.803Z,306.93
2019-04-01T14:48:08.326Z,334.13
2019-04-01T14:50:38.507Z,286.17
2019-04-01T14:53:06.120Z,369.17
2019-04-01T14:55:33.634Z,332.50
2019-04-01T14:58:01.496Z,327.27
2019-04-01T15:00:29.122Z,323.07
2019-04-01T15:02:56.727Z,352.47
2019-04-01T15:05:24.664Z,345.57
2019-04-01T15:07:52.082Z,328.80
2019-04-01T15:10:19.982Z,327.17
2019-04-01T15:12:48.580Z,306.60
2019-04-01T15:15:16.239Z,333.67
2019-04-01T15:17:44.541Z,292.97
2019-04-01T15:20:12.453Z,291.00
2019-04-01T15:22:40.165Z,291.03
2019-04-01T15:25:08.084Z,387.40
2019-04-01T15:27:36.405Z,290.13
2019-04-01T15:30:05.842Z,362.27
2019-04-01T15:32:33.258Z,297.40
2019-04-01T15:35:00.882Z,302.67
2019-04-01T15:37:32.001Z,334.07
2019-04-01T15:39:59.438Z,319.77
2019-04-01T15:42:27.183Z,284.30
2019-04-01T15:44:54.536Z,360.07
2019-04-01T15:47:22.103Z,324.97
2019-04-01T15:49:49.467Z,331.90
2019-04-01T15:52:17.115Z,294.30
2019-04-01T15:54:44.983Z,372.10
2019-04-01T15:57:15.375Z,305.13
2019-04-01T15:59:43.560Z,371.90
2019-04-01T16:02:11.648Z,345.80
2019-04-01T16:04:41.817Z,349.97
2019-04-01T16:07:10.015Z,340.37
2019-04-01T16:09:37.779Z,349.83
2019-04-01T16:12:05.371Z,297.07
2019-04-01T16:14:33.903Z,341.93
2019-04-01T16:17:01.522Z,302.83
2019-04-01T16:19:29.418Z,348.10
2019-04-01T16:21:56.866Z,294.20
2019-04-01T16:24:24.505Z,367.30
2019-04-01T16:26:52.086Z,310.43
2019-04-01T16:29:22.827Z,336.90
2019-04-01T16:32:38.614Z,317.53
2019-04-01T16:35:07.681Z,311.27
2019-04-01T16:37:35.471Z,291.43
2019-04-01T16:40:06.016Z,323.33
2019-04-01T16:42:33.772Z,328.87
2019-04-01T16:45:01.265Z,350.73
2019-04-01T16:47:28.814Z,316.37
2019-04-01T16:49:56.443Z,375.07
2019-04-01T16:52:24.282Z,326.97
2019-04-01T16:55:00.541Z,395.40
2019-04-01T16:57:28.202Z,324.93
2019-04-01T16:59:57.847Z,329.27
2019-04-01T17:02:25.889Z,324.27
2019-04-01T17:04:53.720Z,338.77
2019-04-01T17:07:21.166Z,294.00
2019-04-01T17:09:48.650Z,337.87
2019-04-01T17:12:17.031Z,340.40
2019-04-01T17:14:45.032Z,349.67
2019-04-01T17:17:12.600Z,305.53
2019-04-01T17:19:40.156Z,358.90
2019-04-01T17:22:11.307Z,325.30
2019-04-01T17:24:39.840Z,318.57
2019-04-01T17:27:13.741Z,350.53
2019-04-01T17:29:43.605Z,330.73
2019-04-01T17:32:11.236Z,341.03
2019-04-01T17:34:39.128Z,366.87
2019-04-01T17:37:09.075Z,326.07
2019-04-01T17:39:37.406Z,335.63
2019-04-01T17:42:06.577Z,308.17
2019-04-01T17:44:34.138Z,336.57
2019-04-01T17:47:01.877Z,323.43
2019-04-01T17:49:30.249Z,339.20
2019-04-01T17:51:58.701Z,278.27
2019-04-01T17:54:26.211Z,352.87
2019-04-01T17:56:53.818Z,302.97
2019-04-01T17:59:22.377Z,389.07
2019-04-01T18:01:50.679Z,284.50
2019-04-01T18:04:19.517Z,382.30
2019-04-01T18:06:47.209Z,304.63
2019-04-01T18:09:14.861Z,346.53
2019-04-01T18:11:43.534Z,321.73
2019-04-01T18:14:11.182Z,354.10
2019-04-01T18:16:38.942Z,285.07
2019-04-01T18:19:07.216Z,350.07
2019-04-01T18:21:38.102Z,292.93
2019-04-01T18:24:04.793Z,330.80
2019-04-01T18:26:32.628Z,304.63
2019-04-01T18:29:00.140Z,299.53
2019-04-01T18:31:27.630Z,305.23
2019-04-01T18:33:56.790Z,286.20
2019-04-01T18:36:24.288Z,321.93
2019-04-01T18:38:51.957Z,290.13
2019-04-01T18:41:19.509Z,343.33
2019-04-01T18:43:48.974Z,324.87
2019-04-01T18:46:16.391Z,345.10
2019-04-01T18:48:44.034Z,312.33
2019-04-01T18:51:11.902Z,302.10
2019-04-01T18:53:39.816Z,308.70
2019-04-01T18:56:07.673Z,301.07
2019-04-01T18:58:35.427Z,309.40
2019-04-01T19:01:04.496Z,305.23
2019-04-01T19:03:32.561Z,316.03
2019-04-01T19:06:00.054Z,323.50
2019-04-01T19:08:27.644Z,306.60
2019-04-01T19:11:02.146Z,322.77
2019-04-01T19:13:25.830Z,390.17
2019-04-01T19:15:54.181Z,342.07
2019-04-01T19:18:22.048Z,322.47
2019-04-01T19:20:56.063Z,326.23
2019-04-01T19:23:19.115Z,378.43
2019-04-01T19:25:46.758Z,311.43
2019-04-01T19:28:14.553Z,317.67
2019-04-01T19:30:43.178Z,353.93
2019-04-01T19:33:10.938Z,336.07
2019-04-01T19:35:38.682Z,308.43
2019-04-01T19:38:07.547Z,329.83
2019-04-01T19:40:35.735Z,319.60
2019-04-01T19:43:03.718Z,333.00
2019-04-01T19:45:33.915Z,326.93
2019-04-01T19:48:02.336Z,317.40
2019-04-01T19:50:31.103Z,361.13
2019-04-01T19:52:58.971Z,336.03
2019-04-01T19:55:26.457Z,312.20
2019-04-01T19:57:55.199Z,331.93
2019-04-01T20:00:28.027Z,377.00
2019-04-01T20:02:53.194Z,329.13
2019-04-01T20:05:21.149Z,338.67
2019-04-01T20:07:49.225Z,347.60
2019-04-01T20:10:17.248Z,318.03
2019-04-01T20:12:45.404Z,340.90
2019-04-01T20:15:13.300Z,327.33
2019-04-01T20:17:41.992Z,334.37
2019-04-01T20:20:10.204Z,354.17
2019-04-01T20:22:37.997Z,321.17
2019-04-01T20:25:06.763Z,337.87
2019-04-01T20:27:34.142Z,370.40
2019-04-01T20:30:02.249Z,357.57
2019-04-01T20:32:30.729Z,335.77
2019-04-01T20:34:59.574Z,343.33
2019-04-01T20:37:29.119Z,340.83
2019-04-01T20:39:59.279Z,355.77
2019-04-01T20:42:26.584Z,325.97
2019-04-01T20:44:55.356Z,378.20
2019-04-01T20:47:23.043Z,341.93
2019-04-01T20:49:50.668Z,371.77
2019-04-01T20:52:18.433Z,351.10
2019-04-01T20:54:46.406Z,394.70
2019-04-01T20:57:14.021Z,361.20
2019-04-01T20:59:41.688Z,398.50
2019-04-01T21:02:09.386Z,356.57
2019-04-01T21:04:36.731Z,394.23
2019-04-01T21:07:04.430Z,334.97
2019-04-01T21:09:32.206Z,435.53
2019-04-01T21:11:59.810Z,325.27
2019-04-01T21:14:27.493Z,368.73
2019-04-01T21:16:56.397Z,313.23
2019-04-01T21:19:24.334Z,365.60
2019-04-01T21:21:52.806Z,327.87
2019-04-01T21:24:20.512Z,376.40
2019-04-01T21:26:49.862Z,334.27
2019-04-01T21:29:30.203Z,354.43
2019-04-01T21:31:57.689Z,319.57
2019-04-01T21:34:25.366Z,358.07
2019-04-01T21:36:53.184Z,355.93
2019-04-01T21:39:21.000Z,372.87
2019-04-01T21:41:48.383Z,380.97
2019-04-01T21:44:15.965Z,375.07
2019-04-01T21:46:46.295Z,327.30
2019-04-01T21:49:13.879Z,360.30
2019-04-01T21:51:41.595Z,331.90
2019-04-01T21:54:09.201Z,340.83
2019-04-01T21:56:36.821Z,287.30
2019-04-01T21:59:04.543Z,316.80
2019-04-01T22:01:34.128Z,321.87
2019-04-01T22:04:01.690Z,331.30
2019-04-01T22:06:29.091Z,318.43
2019-04-01T22:08:56.700Z,325.03
2019-04-01T22:11:24.389Z,319.73
2019-04-01T22:13:52.968Z,420.83
2019-04-01T22:16:20.859Z,332.67
2019-04-01T22:18:48.351Z,338.60
2019-04-01T22:21:18.829Z,303.17
2019-04-01T22:23:46.347Z,332.30
2019-04-01T22:26:16.711Z,329.60
2019-04-01T22:28:44.329Z,331.20
2019-04-01T22:31:12.813Z,319.43
2019-04-01T22:33:40.631Z,294.43
2019-04-01T22:36:08.207Z,323.50
2019-04-01T22:38:35.649Z,339.17
2019-04-01T22:41:03.035Z,330.83
2019-04-01T22:43:30.530Z,333.97
2019-04-01T22:45:57.890Z,340.67
2019-04-01T22:48:25.913Z,315.90
2019-04-01T22:50:53.562Z,389.33
2019-04-01T22:53:21.012Z,317.07
2019-04-01T22:55:48.505Z,346.50
2019-04-01T22:58:16.127Z,330.90
2019-04-01T23:00:43.492Z,388.90
2019-04-01T23:03:11.442Z,326.07
2019-04-01T23:05:39.385Z,341.23
2019-04-01T23:08:06.789Z,347.57
2019-04-01T23:10:35.880Z,310.40
2019-04-01T23:13:03.453Z,305.63
2019-04-01T23:15:31.167Z,334.73
2019-04-01T23:18:03.169Z,342.53
2019-04-01T23:20:30.582Z,321.67
2019-04-01T23:22:58.415Z,365.63
2019-04-01T23:25:26.285Z,321.73
2019-04-01T23:27:55.342Z,311.53
2019-04-01T23:30:23.151Z,310.00
2019-04-01T23:32:50.647Z,346.87
2019-04-01T23:35:18.133Z,324.27
2019-04-01T23:37:46.918Z,375.97
2019-04-01T23:40:14.511Z,351.27
2019-04-01T23:42:41.871Z,336.27
2019-04-01T23:45:09.411Z,324.03
2019-04-01T23:47:38.849Z,344.13
2019-04-01T23:50:06.986Z,321.33
2019-04-01T23:52:34.443Z,334.30
2019-04-01T23:55:02.142Z,353.77
2019-04-01T23:57:29.601Z,306.57
2019-04-01T23:59:57.014Z,411.97
